createdAt,value
2022-10-11T00:01:20.282Z,18.40
2022-10-11T00:06:22.397Z,18.40
2022-10-11T00:11:24.502Z,18.20
2022-10-11T00:16:26.622Z,18.30
2022-10-11T00:21:28.692Z,18.30
2022-10-11T00:26:30.760Z,18.30
2022-10-11T00:31:35.696Z,18.30
2022-10-11T00:36:38.604Z,18.30
2022-10-11T00:41:41.421Z,18.20
2022-10-11T00:47:21.818Z,18.20
2022-10-11T00:52:31.783Z,18.20
2022-10-11T00:57:39.992Z,18.10
2022-10-11T01:02:42.492Z,17.90
2022-10-11T01:07:47.236Z,18.10
2022-10-11T01:13:28.201Z,18.10
2022-10-11T01:19:03.166Z,18.10
2022-10-11T01:24:29.981Z,18.10
2022-10-11T01:29:54.908Z,17.90
2022-10-11T01:35:08.945Z,17.80
2022-10-11T01:40:49.942Z,17.80
2022-10-11T01:45:54.733Z,17.70
2022-10-11T01:50:58.673Z,17.90
2022-10-11T01:56:34.474Z,17.70
2022-10-11T02:01:42.285Z,17.70
2022-10-11T02:06:51.309Z,17.60
2022-10-11T02:11:57.352Z,17.60
2022-10-11T02:17:07.253Z,17.50
2022-10-11T02:22:27.220Z,17.70
2022-10-11T02:27:32.880Z,17.50
2022-10-11T02:32:38.192Z,17.40
2022-10-11T02:37:49.211Z,17.30
2022-10-11T02:43:01.201Z,17.50
2022-10-11T02:48:04.584Z,17.30
2022-10-11T02:53:07.892Z,17.30
2022-10-11T02:58:09.909Z,17.20
2022-10-11T03:03:12.249Z,17.20
2022-10-11T03:08:15.896Z,16.60
2022-10-11T03:13:18.584Z,16.90
2022-10-11T03:18:20.925Z,16.80
2022-10-11T03:23:23.029Z,16.80
2022-10-11T03:28:25.132Z,16.80
2022-10-11T03:33:27.316Z,16.70
2022-10-11T03:38:29.356Z,16.70
2022-10-11T03:43:31.459Z,16.70
2022-10-11T03:48:33.803Z,16.60
2022-10-11T03:53:35.851Z,16.60
2022-10-11T03:58:37.914Z,16.60
2022-10-11T04:03:40.211Z,16.60
2022-10-11T04:08:42.268Z,16.60
2022-10-11T04:13:44.259Z,16.50
2022-10-11T04:18:46.325Z,16.40
2022-10-11T04:23:48.390Z,16.50
2022-10-11T04:28:50.565Z,16.60
2022-10-11T04:33:52.647Z,16.50
2022-10-11T04:38:56.110Z,16.40
2022-10-11T04:43:58.385Z,16.60
2022-10-11T04:49:00.451Z,16.40
2022-10-11T04:54:02.529Z,16.40
2022-10-11T04:59:04.589Z,16.40
2022-10-11T05:04:07.511Z,16.00
2022-10-11T05:09:09.561Z,16.40
2022-10-11T05:14:11.568Z,15.80
2022-10-11T05:19:13.744Z,16.40
2022-10-11T05:24:15.802Z,16.30
2022-10-11T05:29:17.821Z,16.20
2022-10-11T05:34:19.881Z,16.10
2022-10-11T05:39:21.994Z,16.10
2022-10-11T05:44:24.078Z,15.90
2022-10-11T05:49:26.238Z,15.90
2022-10-11T05:54:31.615Z,15.70
2022-10-11T05:59:35.139Z,15.70
2022-10-11T06:04:37.207Z,15.70
2022-10-11T06:09:39.658Z,15.60
2022-10-11T06:14:41.731Z,15.50
2022-10-11T06:19:43.742Z,15.50
2022-10-11T06:24:45.790Z,15.40
2022-10-11T06:29:48.085Z,15.40
2022-10-11T06:34:50.367Z,15.60
2022-10-11T06:39:52.396Z,15.30
2022-10-11T06:44:54.478Z,15.40
2022-10-11T06:49:56.467Z,15.40
2022-10-11T06:54:58.464Z,15.40
2022-10-11T07:00:00.521Z,15.30
2022-10-11T07:05:02.559Z,15.50
2022-10-11T07:10:04.976Z,15.30
2022-10-11T07:15:07.652Z,15.50
2022-10-11T07:20:10.466Z,15.20
2022-10-11T07:25:12.411Z,15.30
2022-10-11T07:30:14.487Z,15.30
2022-10-11T07:35:16.622Z,15.30
2022-10-11T07:40:18.671Z,15.50
2022-10-11T07:45:20.682Z,15.50
2022-10-11T07:50:22.811Z,15.70
2022-10-11T07:55:27.289Z,15.80
2022-10-11T08:00:29.348Z,15.70
2022-10-11T08:05:32.702Z,16.00
2022-10-11T08:10:39.510Z,16.10
2022-10-11T08:15:41.629Z,15.90
2022-10-11T08:20:43.695Z,16.00
2022-10-11T08:25:47.538Z,16.00
2022-10-11T08:30:51.248Z,16.10
2022-10-11T08:35:54.132Z,16.10
2022-10-11T08:40:58.531Z,16.30
2022-10-11T08:46:04.438Z,16.40
2022-10-11T08:51:26.987Z,16.60
2022-10-11T08:56:32.215Z,16.60
2022-10-11T09:01:35.769Z,16.80
2022-10-11T09:06:55.588Z,16.80
2022-10-11T09:12:32.844Z,17.10
2022-10-11T09:17:55.837Z,17.20
2022-10-11T09:23:14.622Z,17.20
2022-10-11T09:28:46.394Z,17.40
2022-10-11T09:33:50.839Z,17.60
2022-10-11T09:39:24.603Z,17.70
2022-10-11T09:44:38.555Z,17.80
2022-10-11T09:49:47.618Z,17.80
2022-10-11T09:54:54.578Z,17.80
2022-10-11T10:00:05.678Z,17.80
2022-10-11T10:05:14.840Z,17.70
2022-10-11T10:10:28.669Z,17.80
2022-10-11T10:15:34.642Z,17.90
2022-10-11T10:20:36.830Z,18.00
2022-10-11T10:25:43.323Z,18.20
2022-10-11T10:30:54.302Z,18.20
2022-10-11T10:36:12.208Z,18.40
2022-10-11T10:41:17.931Z,18.40
2022-10-11T10:46:29.197Z,18.50
2022-10-11T10:51:49.094Z,18.80
2022-10-11T11:02:35.373Z,18.80
2022-10-11T11:08:02.582Z,18.80
2022-10-11T11:13:24.399Z,19.30
2022-10-11T11:18:53.420Z,19.10
2022-10-11T11:24:19.062Z,19.60
2022-10-11T11:29:39.952Z,19.80
2022-10-11T11:34:48.002Z,20.10
2022-10-11T11:39:54.035Z,20.40
2022-10-11T11:44:56.793Z,20.50
2022-10-11T11:50:22.139Z,20.80
2022-10-11T11:55:49.327Z,20.80
2022-10-11T12:01:12.642Z,21.20
2022-10-11T12:06:14.688Z,21.60
2022-10-11T12:11:22.941Z,21.50
2022-10-11T12:16:27.049Z,22.00
2022-10-11T12:21:39.404Z,22.00
2022-10-11T12:26:58.521Z,22.50
2022-10-11T12:32:00.826Z,22.50
2022-10-11T12:37:17.907Z,22.60
2022-10-11T12:42:35.002Z,22.70
2022-10-11T12:47:55.400Z,23.00
2022-10-11T12:53:05.264Z,23.00
2022-10-11T12:58:27.399Z,23.10
2022-10-11T13:03:47.667Z,23.10
2022-10-11T13:09:03.897Z,23.30
2022-10-11T13:14:21.645Z,23.50
2022-10-11T13:19:24.407Z,23.80
2022-10-11T13:24:34.746Z,24.10
2022-10-11T13:29:40.522Z,24.30
2022-10-11T13:34:46.507Z,24.80
2022-10-11T13:39:51.126Z,24.90
2022-10-11T13:44:53.313Z,25.30
2022-10-11T13:50:03.732Z,25.60
2022-10-11T13:55:09.126Z,25.60
2022-10-11T14:00:14.496Z,26.00
2022-10-11T14:05:43.752Z,26.20
2022-10-11T14:10:47.615Z,26.30
2022-10-11T14:16:09.676Z,26.30
2022-10-11T14:21:26.898Z,26.10
2022-10-11T14:26:43.091Z,26.00
2022-10-11T14:31:45.934Z,25.10
2022-10-11T14:36:49.320Z,25.50
2022-10-11T14:41:52.546Z,25.50
2022-10-11T14:46:55.067Z,25.50
2022-10-11T14:51:58.635Z,25.60
2022-10-11T14:57:03.310Z,24.90
2022-10-11T15:02:08.187Z,24.80
2022-10-11T15:07:12.830Z,24.30
2022-10-11T15:12:14.987Z,24.30
2022-10-11T15:17:17.447Z,23.50
2022-10-11T15:22:19.497Z,23.20
2022-10-11T15:27:25.351Z,22.90
2022-10-11T15:32:27.385Z,22.60
2022-10-11T15:37:31.714Z,22.50
2022-10-11T15:42:37.216Z,22.30
2022-10-11T15:47:39.727Z,21.70
2022-10-11T15:52:41.883Z,21.60
2022-10-11T15:57:44.011Z,21.50
2022-10-11T16:02:46.059Z,21.00
2022-10-11T16:07:48.699Z,20.70
2022-10-11T16:12:50.976Z,20.40
2022-10-11T16:17:53.016Z,20.10
2022-10-11T16:22:55.596Z,19.80
2022-10-11T16:27:57.757Z,19.70
2022-10-11T16:33:00.513Z,19.40
2022-10-11T16:38:02.495Z,19.40
2022-10-11T16:43:07.861Z,18.70
2022-10-11T16:48:10.279Z,18.70
2022-10-11T16:53:15.425Z,18.30
2022-10-11T16:58:17.841Z,17.90
2022-10-11T17:03:19.861Z,17.60
2022-10-11T17:08:21.907Z,17.50
2022-10-11T17:13:24.033Z,17.20
2022-10-11T17:18:26.465Z,17.20
2022-10-11T17:23:28.823Z,16.80
2022-10-11T17:29:01.068Z,16.70
2022-10-11T17:34:03.112Z,16.60
2022-10-11T17:39:12.185Z,16.30
2022-10-11T17:44:17.118Z,16.20
2022-10-11T17:49:19.213Z,16.20
2022-10-11T17:54:21.334Z,15.90
2022-10-11T17:59:27.331Z,15.80
2022-10-11T18:04:30.106Z,15.40
2022-10-11T18:09:32.939Z,15.50
2022-10-11T18:14:34.891Z,15.30
2022-10-11T18:19:37.000Z,15.30
2022-10-11T18:24:39.216Z,15.30
2022-10-11T18:29:41.308Z,15.30
2022-10-11T18:34:43.860Z,15.30
2022-10-11T18:39:46.290Z,15.30
2022-10-11T18:44:48.432Z,15.30
2022-10-11T18:49:50.476Z,15.20
2022-10-11T18:54:52.601Z,14.90
2022-10-11T18:59:54.800Z,14.80
2022-10-11T19:04:57.371Z,14.80
2022-10-11T19:10:00.339Z,14.50
2022-10-11T19:15:02.506Z,14.40
2022-10-11T19:20:04.862Z,14.30
2022-10-11T19:25:07.183Z,13.70
2022-10-11T19:30:09.662Z,14.00
2022-10-11T19:35:14.264Z,13.90
2022-10-11T19:40:18.648Z,13.90
2022-10-11T19:45:20.694Z,13.70
2022-10-11T19:50:22.740Z,13.70
2022-10-11T19:55:24.773Z,13.70
2022-10-11T20:00:26.850Z,13.90
2022-10-11T20:05:28.937Z,13.70
2022-10-11T20:10:31.104Z,13.70
2022-10-11T20:15:37.383Z,13.70
2022-10-11T20:25:41.942Z,13.80
2022-10-11T20:30:44.007Z,13.80
2022-10-11T20:36:03.957Z,13.90
2022-10-11T20:41:08.368Z,14.00
2022-10-11T20:46:12.616Z,14.10
2022-10-11T20:51:14.794Z,14.10
2022-10-11T20:56:20.170Z,14.30
2022-10-11T21:01:34.980Z,14.30
2022-10-11T21:06:37.049Z,14.40
2022-10-11T21:11:39.191Z,14.10
2022-10-11T21:16:42.037Z,14.40
2022-10-11T21:21:52.595Z,14.50
2022-10-11T21:27:00.310Z,14.40
2022-10-11T21:32:02.771Z,14.50
2022-10-11T21:37:05.065Z,14.50
2022-10-11T21:42:07.138Z,14.50
2022-10-11T21:47:09.833Z,14.50
2022-10-11T21:52:11.887Z,14.50
2022-10-11T21:57:14.016Z,14.40
2022-10-11T22:02:16.010Z,14.40
2022-10-11T22:07:18.050Z,14.30
2022-10-11T22:12:20.131Z,14.30
2022-10-11T22:17:22.293Z,14.30
2022-10-11T22:22:24.929Z,14.30
2022-10-11T22:27:27.039Z,14.30
2022-10-11T22:32:29.046Z,14.20
2022-10-11T22:37:31.031Z,14.30
2022-10-11T22:42:33.098Z,14.20
2022-10-11T22:47:35.334Z,14.20
2022-10-11T22:52:38.686Z,14.30
2022-10-11T22:57:40.701Z,14.20
2022-10-11T23:02:42.809Z,14.20
2022-10-11T23:07:47.068Z,14.20
2022-10-11T23:12:49.071Z,14.30
2022-10-11T23:17:51.059Z,14.20
2022-10-11T23:22:53.030Z,14.20
2022-10-11T23:27:55.059Z,14.20
2022-10-11T23:32:57.363Z,14.10
2022-10-11T23:37:59.337Z,14.00
2022-10-11T23:43:01.380Z,13.90
2022-10-11T23:48:03.634Z,13.90
2022-10-11T23:53:05.595Z,13.70
2022-10-11T23:58:07.923Z,13.50
